createdAt,value
2023-03-05T00:00:48.207Z,29.25
2023-03-05T00:03:14.811Z,23.35
2023-03-05T00:08:08.060Z,31.77
2023-03-05T00:13:03.544Z,16.35
2023-03-05T00:15:30.353Z,20.42
2023-03-05T00:18:00.253Z,16.00
2023-03-05T00:20:27.144Z,18.40
2023-03-05T00:23:02.690Z,17.80
2023-03-05T00:25:29.777Z,27.90
2023-03-05T00:27:56.270Z,25.10
2023-03-05T00:30:22.731Z,17.85
2023-03-05T00:32:49.297Z,19.83
2023-03-05T00:35:15.769Z,17.30
2023-03-05T00:37:42.251Z,20.33
2023-03-05T00:40:18.298Z,15.63
2023-03-05T00:42:58.052Z,23.50
2023-03-05T00:45:25.194Z,17.98
2023-03-05T00:47:51.701Z,25.15
2023-03-05T00:50:18.261Z,37.63
2023-03-05T00:52:44.810Z,18.08
2023-03-05T00:55:11.526Z,24.52
2023-03-05T01:00:11.362Z,23.48
2023-03-05T01:02:38.164Z,29.77
2023-03-05T01:05:05.031Z,18.23
2023-03-05T01:07:31.683Z,24.73
2023-03-05T01:12:26.027Z,17.88
2023-03-05T01:14:52.601Z,16.20
2023-03-05T01:17:19.094Z,15.73
2023-03-05T01:19:45.569Z,19.17
2023-03-05T01:22:12.059Z,12.88
2023-03-05T01:24:38.512Z,19.17
2023-03-05T01:29:31.592Z,22.98
2023-03-05T01:31:58.111Z,19.67
2023-03-05T01:34:24.529Z,10.93
2023-03-05T01:36:51.454Z,14.82
2023-03-05T01:39:18.014Z,18.58
2023-03-05T01:41:44.616Z,24.98
2023-03-05T01:46:59.342Z,21.13
2023-03-05T01:49:32.858Z,10.57
2023-03-05T01:52:20.226Z,9.57
2023-03-05T01:54:54.218Z,13.70
2023-03-05T01:57:34.436Z,12.55
2023-03-05T02:00:43.447Z,12.65
2023-03-05T02:03:16.481Z,10.80
2023-03-05T02:05:58.345Z,8.30
2023-03-05T02:13:03.300Z,15.68
2023-03-05T02:15:31.625Z,10.45
2023-03-05T02:17:58.337Z,16.67
2023-03-05T02:20:30.557Z,10.48
2023-03-05T02:23:16.976Z,13.23
2023-03-05T02:26:06.568Z,7.35
2023-03-05T02:28:55.598Z,16.35
2023-03-05T02:31:40.106Z,9.50
2023-03-05T02:34:10.420Z,9.32
2023-03-05T02:36:37.057Z,15.27
2023-03-05T02:41:30.570Z,16.55
2023-03-05T02:46:28.045Z,17.88
2023-03-05T02:48:54.665Z,5.30
2023-03-05T02:54:07.156Z,20.27
2023-03-05T02:56:34.381Z,10.30
2023-03-05T02:59:00.855Z,14.40
2023-03-05T03:01:31.596Z,16.25
2023-03-05T03:04:00.330Z,11.05
2023-03-05T03:06:27.129Z,9.48
2023-03-05T03:08:53.622Z,12.27
2023-03-05T03:11:21.602Z,7.30
2023-03-05T03:13:48.127Z,17.55
2023-03-05T03:24:10.943Z,15.73
2023-03-05T03:26:44.700Z,14.82
2023-03-05T03:29:11.457Z,11.32
2023-03-05T03:31:44.143Z,8.40
2023-03-05T03:34:24.917Z,13.32
2023-03-05T03:40:50.784Z,6.30
2023-03-05T03:45:46.420Z,24.40
2023-03-05T03:48:53.310Z,10.75
2023-03-05T03:56:02.507Z,4.78
2023-03-05T03:58:29.885Z,14.82
2023-03-05T04:00:58.092Z,21.02
2023-03-05T04:03:24.724Z,7.18
2023-03-05T04:08:35.777Z,8.35
2023-03-05T04:11:10.249Z,8.07
2023-03-05T04:13:36.868Z,15.85
2023-03-05T04:18:39.441Z,11.93
2023-03-05T04:21:06.007Z,17.85
2023-03-05T04:25:59.591Z,9.20
2023-03-05T04:31:27.793Z,7.45
2023-03-05T04:38:38.418Z,7.53
2023-03-05T04:41:05.217Z,13.15
2023-03-05T04:43:37.809Z,7.72
2023-03-05T04:46:05.078Z,8.63
2023-03-05T04:48:34.429Z,14.45
2023-03-05T04:51:17.963Z,14.38
2023-03-05T04:54:26.259Z,12.38
2023-03-05T04:56:57.576Z,9.75
2023-03-05T04:59:28.847Z,14.05
2023-03-05T05:02:01.464Z,18.88
2023-03-05T05:04:53.272Z,13.63
2023-03-05T05:07:22.563Z,10.82
2023-03-05T05:09:55.175Z,13.68
2023-03-05T05:15:37.887Z,10.98
2023-03-05T05:18:08.495Z,5.35
2023-03-05T05:24:43.889Z,11.57
2023-03-05T05:30:10.735Z,7.70
2023-03-05T05:32:57.905Z,9.05
2023-03-05T05:40:08.530Z,9.60
2023-03-05T05:42:35.878Z,7.22
2023-03-05T05:45:12.715Z,9.90
2023-03-05T05:47:39.555Z,10.60
2023-03-05T05:50:17.363Z,13.10
2023-03-05T05:52:51.264Z,8.88
2023-03-05T05:55:18.398Z,10.80
2023-03-05T05:57:45.032Z,8.75
2023-03-05T06:02:46.455Z,18.40
2023-03-05T06:05:24.148Z,12.13
2023-03-05T06:11:21.362Z,9.55
2023-03-05T06:20:39.674Z,12.93
2023-03-05T06:23:08.915Z,6.80
2023-03-05T06:30:13.942Z,8.38
2023-03-05T06:32:40.795Z,12.35
2023-03-05T06:35:08.028Z,10.85
2023-03-05T06:37:34.620Z,6.00
2023-03-05T06:45:47.165Z,11.65
2023-03-05T06:48:15.653Z,7.78
2023-03-05T06:50:53.128Z,7.82
2023-03-05T07:01:15.033Z,7.25
2023-03-05T07:07:41.970Z,8.05
2023-03-05T07:10:15.971Z,9.20
2023-03-05T07:21:03.580Z,10.43
2023-03-05T07:49:22.383Z,12.38
2023-03-05T07:51:51.623Z,7.60
2023-03-05T07:54:18.235Z,8.52
2023-03-05T08:02:33.528Z,13.82
2023-03-05T08:08:16.714Z,9.10
2023-03-05T08:10:53.196Z,5.05
2023-03-05T08:25:33.737Z,9.82
2023-03-05T08:28:09.393Z,8.40
2023-03-05T08:38:26.933Z,5.65
2023-03-05T08:56:38.463Z,7.43
2023-03-05T08:59:05.787Z,14.30
2023-03-05T09:05:14.734Z,6.82
2023-03-05T09:07:41.829Z,8.30
2023-03-05T09:22:33.896Z,9.15
2023-03-05T09:32:12.795Z,4.70
2023-03-05T09:34:42.586Z,6.78
2023-03-05T09:37:10.940Z,4.53
2023-03-05T09:39:40.516Z,7.75
2023-03-05T09:42:13.145Z,6.13
2023-03-05T09:44:58.337Z,4.55
2023-03-05T09:47:30.905Z,10.05
2023-03-05T09:50:06.376Z,5.82
2023-03-05T09:53:12.307Z,6.85
2023-03-05T09:59:25.154Z,11.73
2023-03-05T10:01:53.674Z,7.22
2023-03-05T10:04:40.428Z,6.18
2023-03-05T10:07:14.780Z,7.60
2023-03-05T10:17:46.296Z,6.45
2023-03-05T10:20:41.792Z,9.03
2023-03-05T10:23:08.164Z,9.63
2023-03-05T10:26:08.788Z,8.07
2023-03-05T10:32:50.988Z,4.20
2023-03-05T10:35:41.097Z,5.38
2023-03-05T10:38:32.258Z,5.55
2023-03-05T10:44:47.738Z,4.15
2023-03-05T10:47:30.788Z,3.78
2023-03-05T10:49:59.412Z,5.10
2023-03-05T10:52:48.195Z,6.70
2023-03-05T11:02:09.238Z,7.53
2023-03-05T11:04:41.392Z,3.55
2023-03-05T11:07:32.671Z,9.63
2023-03-05T11:10:16.851Z,8.82
2023-03-05T11:12:47.811Z,5.03
2023-03-05T11:15:14.630Z,8.63
2023-03-05T11:17:44.884Z,9.77
2023-03-05T11:20:30.058Z,8.07
2023-03-05T11:23:06.027Z,8.98
2023-03-05T11:26:05.766Z,7.85
2023-03-05T11:28:51.987Z,6.28
2023-03-05T11:31:31.202Z,6.25
2023-03-05T11:34:53.063Z,7.95
2023-03-05T11:37:46.203Z,7.75
2023-03-05T11:40:30.293Z,4.15
2023-03-05T11:43:00.717Z,6.40
2023-03-05T11:45:37.363Z,9.60
2023-03-05T11:48:37.017Z,3.83
2023-03-05T11:51:19.644Z,6.63
2023-03-05T11:53:55.775Z,3.25
2023-03-05T11:56:34.566Z,5.03
2023-03-05T11:59:29.826Z,7.10
2023-03-05T12:01:57.839Z,5.80
2023-03-05T12:04:24.672Z,11.32
2023-03-05T12:06:55.114Z,4.38
2023-03-05T12:09:27.829Z,6.82
2023-03-05T12:12:05.135Z,5.93
2023-03-05T12:18:17.805Z,9.63
2023-03-05T12:20:55.711Z,4.47
2023-03-05T12:23:23.234Z,4.25
2023-03-05T12:25:57.183Z,8.75
2023-03-05T12:28:36.769Z,8.95
2023-03-05T12:31:25.756Z,12.07
2023-03-05T12:33:52.416Z,5.40
2023-03-05T12:38:52.488Z,12.85
2023-03-05T12:41:30.543Z,4.20
2023-03-05T12:44:07.282Z,6.95
2023-03-05T12:46:39.097Z,4.63
2023-03-05T12:49:20.754Z,8.95
2023-03-05T12:51:50.143Z,9.63
2023-03-05T12:54:27.085Z,6.70
2023-03-05T12:56:56.045Z,5.63
2023-03-05T12:59:27.952Z,8.23
2023-03-05T13:02:03.078Z,5.28
2023-03-05T13:04:32.400Z,5.72
2023-03-05T13:07:07.613Z,5.45
2023-03-05T13:09:36.742Z,5.53
2023-03-05T13:12:11.676Z,7.75
2023-03-05T13:14:42.504Z,2.50
2023-03-05T13:17:47.275Z,3.92
2023-03-05T13:20:38.647Z,6.30
2023-03-05T13:23:08.029Z,4.53
2023-03-05T13:25:34.706Z,6.53
2023-03-05T13:30:33.613Z,3.05
2023-03-05T13:33:04.016Z,3.13
2023-03-05T13:35:34.968Z,5.45
2023-03-05T13:38:40.885Z,3.53
2023-03-05T13:44:41.995Z,5.63
2023-03-05T13:47:15.812Z,6.13
2023-03-05T13:49:44.233Z,7.13
2023-03-05T13:52:11.800Z,3.88
2023-03-05T13:54:38.531Z,6.13
2023-03-05T13:59:39.138Z,5.78
2023-03-05T14:02:20.736Z,4.32
2023-03-05T14:04:48.134Z,6.07
2023-03-05T14:07:20.882Z,5.53
2023-03-05T14:09:50.053Z,6.57
2023-03-05T14:12:30.368Z,3.22
2023-03-05T14:14:59.418Z,6.07
2023-03-05T14:17:44.898Z,2.25
2023-03-05T14:20:11.253Z,8.45
2023-03-05T14:22:40.310Z,3.78
2023-03-05T14:25:25.556Z,2.40
2023-03-05T14:27:52.198Z,6.13
2023-03-05T14:32:48.678Z,5.93
2023-03-05T14:35:26.822Z,4.88
2023-03-05T14:37:56.835Z,8.82
2023-03-05T14:40:33.016Z,4.63
2023-03-05T14:43:06.465Z,8.13
2023-03-05T14:45:36.253Z,5.65
2023-03-05T14:48:08.147Z,3.35
2023-03-05T14:50:56.465Z,6.55
2023-03-05T14:53:28.010Z,5.47
2023-03-05T14:55:56.893Z,3.13
2023-03-05T14:58:27.537Z,8.15
2023-03-05T15:00:55.567Z,5.47
2023-03-05T15:03:22.772Z,2.63
2023-03-05T15:05:52.499Z,15.35
2023-03-05T15:08:32.269Z,8.73
2023-03-05T15:10:59.834Z,9.60
2023-03-05T15:13:26.724Z,4.18
2023-03-05T15:15:53.862Z,4.95
2023-03-05T15:18:22.433Z,1.88
2023-03-05T15:20:49.481Z,5.88
2023-03-05T15:23:16.183Z,3.42
2023-03-05T15:28:09.314Z,4.72
2023-03-05T15:30:39.544Z,6.20
2023-03-05T15:33:09.640Z,4.50
2023-03-05T15:35:36.367Z,6.35
2023-03-05T15:38:03.225Z,4.45
2023-03-05T15:40:29.994Z,5.20
2023-03-05T15:42:57.742Z,4.70
2023-03-05T15:45:24.925Z,4.88
2023-03-05T15:47:52.730Z,4.68
2023-03-05T15:50:21.320Z,4.50
2023-03-05T15:52:48.367Z,4.43
2023-03-05T15:55:14.904Z,3.92
2023-03-05T15:57:47.570Z,4.90
2023-03-05T16:00:16.376Z,7.25
2023-03-05T16:02:44.562Z,4.93
2023-03-05T16:05:11.307Z,4.97
2023-03-05T16:12:43.090Z,7.68
2023-03-05T16:15:16.124Z,5.25
2023-03-05T16:17:45.466Z,7.00
2023-03-05T16:20:12.659Z,3.92
2023-03-05T16:22:39.246Z,8.45
2023-03-05T16:25:06.331Z,12.68
2023-03-05T16:27:32.820Z,8.57
2023-03-05T16:29:59.389Z,8.60
2023-03-05T16:34:52.484Z,6.68
2023-03-05T16:37:21.321Z,5.65
2023-03-05T16:39:58.178Z,5.93
2023-03-05T16:42:24.614Z,4.43
2023-03-05T16:44:56.367Z,5.07
2023-03-05T16:47:25.931Z,5.18
2023-03-05T16:49:52.504Z,6.68
2023-03-05T16:52:19.928Z,2.13
2023-03-05T16:54:47.591Z,7.30
2023-03-05T16:59:44.657Z,8.23
2023-03-05T17:02:13.224Z,10.23
2023-03-05T17:04:39.899Z,20.00
2023-03-05T17:07:06.931Z,5.50
2023-03-05T17:09:33.791Z,7.82
2023-03-05T17:12:00.522Z,8.98
2023-03-05T17:14:27.138Z,6.70
2023-03-05T17:19:25.089Z,4.78
2023-03-05T17:21:52.334Z,7.10
2023-03-05T17:24:22.261Z,11.05
2023-03-05T17:26:49.768Z,6.57
2023-03-05T17:29:16.527Z,7.45
2023-03-05T17:34:10.180Z,13.05
2023-03-05T17:36:42.809Z,11.65
2023-03-05T17:39:09.282Z,15.07
2023-03-05T17:41:35.844Z,6.13
2023-03-05T17:46:28.914Z,4.63
2023-03-05T17:51:21.836Z,7.30
2023-03-05T17:53:48.261Z,6.88
2023-03-05T17:56:22.070Z,5.30
2023-03-05T17:58:49.639Z,9.65
2023-03-05T18:01:29.368Z,5.78
2023-03-05T18:03:56.983Z,9.07
2023-03-05T18:06:23.666Z,4.75
2023-03-05T18:12:23.665Z,6.10
2023-03-05T18:14:50.273Z,10.65
2023-03-05T18:17:19.533Z,7.10
2023-03-05T18:19:46.219Z,10.10
2023-03-05T18:24:41.246Z,7.28
2023-03-05T18:27:20.818Z,8.02
2023-03-05T18:29:47.346Z,8.68
2023-03-05T18:32:16.113Z,6.40
2023-03-05T18:34:42.584Z,4.80
2023-03-05T18:37:09.091Z,14.13
2023-03-05T18:39:36.727Z,7.10
2023-03-05T18:42:03.471Z,11.20
2023-03-05T18:44:30.051Z,6.72
2023-03-05T18:49:29.829Z,5.90
2023-03-05T18:51:59.646Z,10.00
2023-03-05T18:54:26.307Z,4.95
2023-03-05T18:59:19.224Z,5.47
2023-03-05T19:01:45.759Z,7.38
2023-03-05T19:04:12.330Z,3.17
2023-03-05T19:09:12.129Z,14.35
2023-03-05T19:11:38.606Z,7.90
2023-03-05T19:14:05.121Z,7.10
2023-03-05T19:16:38.358Z,9.93
2023-03-05T19:19:20.552Z,8.65
2023-03-05T19:22:04.903Z,6.40
2023-03-05T19:24:31.663Z,5.25
2023-03-05T19:27:01.068Z,7.78
2023-03-05T19:29:33.149Z,13.77
2023-03-05T19:31:59.749Z,8.38
2023-03-05T19:34:28.614Z,12.00
2023-03-05T19:36:55.100Z,9.75
2023-03-05T19:39:22.729Z,4.82
2023-03-05T19:41:49.306Z,5.45
2023-03-05T19:44:16.241Z,10.70
2023-03-05T19:46:43.609Z,9.40
2023-03-05T19:49:10.727Z,6.75
2023-03-05T19:51:37.255Z,8.88
2023-03-05T19:54:06.290Z,6.75
2023-03-05T19:56:32.886Z,7.38
2023-03-05T20:01:41.554Z,10.15
2023-03-05T20:04:11.745Z,7.38
2023-03-05T20:06:38.392Z,6.05
2023-03-05T20:11:36.002Z,11.38
2023-03-05T20:14:02.573Z,8.02
2023-03-05T20:16:32.884Z,6.07
2023-03-05T20:18:59.822Z,8.02
2023-03-05T20:21:36.242Z,4.97
2023-03-05T20:24:08.517Z,6.45
2023-03-05T20:26:38.422Z,7.45
2023-03-05T21:13:25.585Z,10.43
2023-03-05T21:15:52.641Z,8.23
2023-03-05T21:18:28.254Z,5.40
2023-03-05T21:20:54.903Z,7.10
2023-03-05T21:25:47.999Z,7.68
2023-03-05T21:30:52.004Z,8.13
2023-03-05T21:33:22.302Z,8.60
2023-03-05T21:35:52.624Z,13.10
2023-03-05T21:38:39.440Z,8.88
2023-03-05T21:41:06.373Z,6.85
2023-03-05T21:43:42.761Z,10.27
2023-03-05T21:46:11.055Z,8.85
2023-03-05T21:48:38.272Z,11.77
2023-03-05T21:51:08.870Z,10.25
2023-03-05T21:53:35.766Z,6.10
2023-03-05T21:56:21.027Z,5.25
2023-03-05T21:58:47.588Z,10.32
2023-03-05T22:01:19.449Z,9.82
2023-03-05T22:03:46.144Z,6.75
2023-03-05T22:08:39.695Z,9.98
2023-03-05T22:11:10.805Z,7.85
2023-03-05T22:13:38.113Z,10.57
2023-03-05T22:16:05.528Z,7.95
2023-03-05T22:18:33.377Z,12.63
2023-03-05T22:21:00.154Z,9.05
2023-03-05T22:23:46.336Z,9.00
2023-03-05T22:26:12.829Z,7.38
2023-03-05T22:28:39.462Z,8.55
2023-03-05T22:33:32.734Z,11.25
2023-03-05T22:35:59.332Z,8.07
2023-03-05T22:40:53.063Z,9.18
2023-03-05T22:43:20.191Z,9.30
2023-03-05T22:45:46.743Z,5.13
2023-03-05T22:50:41.071Z,5.68
2023-03-05T22:53:08.156Z,8.13
2023-03-05T22:55:34.782Z,6.45
2023-03-05T23:00:27.781Z,8.15
2023-03-05T23:02:54.596Z,6.05
2023-03-05T23:05:21.557Z,8.00
2023-03-05T23:07:48.148Z,6.82
2023-03-05T23:12:53.400Z,5.68
2023-03-05T23:15:30.103Z,7.38
2023-03-05T23:17:57.204Z,7.25
2023-03-05T23:20:27.239Z,5.88
2023-03-05T23:22:56.050Z,5.38
2023-03-05T23:25:29.524Z,6.95
2023-03-05T23:27:58.119Z,11.10
2023-03-05T23:30:25.972Z,5.78
2023-03-05T23:32:58.210Z,5.53
2023-03-05T23:35:33.916Z,5.90
2023-03-05T23:38:05.026Z,7.00
2023-03-05T23:40:37.252Z,5.32
2023-03-05T23:43:04.676Z,11.23
2023-03-05T23:45:32.470Z,5.60
2023-03-05T23:47:59.378Z,4.25
2023-03-05T23:50:34.963Z,5.60
2023-03-05T23:53:02.462Z,4.43
2023-03-05T23:55:35.429Z,4.57
2023-03-05T23:58:09.276Z,4.75
